createdAt,value
2023-01-01T00:01:41.107Z,11.59
2023-01-01T00:04:12.239Z,11.61
2023-01-01T00:06:39.118Z,11.54
2023-01-01T00:09:05.675Z,11.55
2023-01-01T00:11:32.187Z,11.42
2023-01-01T00:13:58.876Z,11.38
2023-01-01T00:16:26.938Z,11.37
2023-01-01T00:18:53.648Z,11.34
2023-01-01T00:21:20.263Z,11.38
2023-01-01T00:23:46.789Z,11.33
2023-01-01T00:26:16.142Z,11.36
2023-01-01T00:28:43.099Z,11.27
2023-01-01T00:31:11.481Z,11.28
2023-01-01T00:33:39.723Z,11.19
2023-01-01T00:36:07.437Z,11.17
2023-01-01T00:38:34.072Z,11.11
2023-01-01T00:41:00.867Z,11.13
2023-01-01T00:43:27.425Z,11.09
2023-01-01T00:45:54.188Z,11.12
2023-01-01T00:48:21.282Z,11.04
2023-01-01T00:50:49.361Z,11.14
2023-01-01T00:53:15.996Z,11.15
2023-01-01T00:55:43.290Z,11.18
2023-01-01T00:58:10.413Z,11.16
2023-01-01T01:00:37.331Z,11.16
2023-01-01T01:03:04.482Z,11.03
2023-01-01T01:05:31.763Z,11.06
2023-01-01T01:08:00.346Z,11.04
2023-01-01T01:10:26.931Z,11.20
2023-01-01T01:12:53.560Z,11.17
2023-01-01T01:15:20.136Z,11.15
2023-01-01T01:17:46.938Z,11.05
2023-01-01T01:20:13.470Z,11.00
2023-01-01T01:22:40.080Z,11.06
2023-01-01T01:25:09.000Z,11.03
2023-01-01T01:27:35.562Z,10.96
2023-01-01T01:30:02.132Z,10.94
2023-01-01T01:32:28.672Z,11.08
2023-01-01T01:34:55.196Z,11.19
2023-01-01T01:37:21.853Z,11.10
2023-01-01T01:39:53.589Z,11.07
2023-01-01T01:42:22.574Z,11.19
2023-01-01T01:44:53.906Z,11.15
2023-01-01T01:47:26.268Z,11.24
2023-01-01T01:49:57.271Z,11.21
2023-01-01T01:52:25.054Z,11.38
2023-01-01T01:54:52.434Z,11.48
2023-01-01T01:57:19.334Z,11.32
2023-01-01T01:59:49.914Z,11.58
2023-01-01T02:02:23.756Z,11.43
2023-01-01T02:04:50.984Z,11.25
2023-01-01T02:07:18.402Z,11.19
2023-01-01T02:09:45.328Z,11.29
2023-01-01T02:12:11.981Z,11.27
2023-01-01T02:14:38.739Z,11.13
2023-01-01T02:17:14.057Z,11.10
2023-01-01T02:19:52.001Z,11.23
2023-01-01T02:22:29.227Z,11.06
2023-01-01T02:25:09.617Z,11.17
2023-01-01T02:27:48.162Z,11.11
2023-01-01T02:30:16.928Z,11.24
2023-01-01T02:32:47.267Z,11.10
2023-01-01T02:35:17.851Z,11.11
2023-01-01T02:37:44.898Z,11.22
2023-01-01T02:40:11.660Z,11.20
2023-01-01T02:42:38.274Z,11.26
2023-01-01T02:45:07.018Z,11.14
2023-01-01T02:47:34.886Z,11.16
2023-01-01T02:50:08.490Z,11.21
2023-01-01T02:53:01.685Z,11.05
2023-01-01T02:55:38.796Z,11.09
2023-01-01T02:58:13.256Z,11.05
2023-01-01T03:00:40.107Z,11.06
2023-01-01T03:03:17.657Z,11.05
2023-01-01T03:05:53.003Z,11.01
2023-01-01T03:08:25.566Z,11.01
2023-01-01T03:10:59.133Z,10.99
2023-01-01T03:13:31.657Z,10.91
2023-01-01T03:16:02.474Z,10.83
2023-01-01T03:18:36.766Z,10.82
2023-01-01T03:21:06.173Z,10.79
2023-01-01T03:23:36.877Z,10.67
2023-01-01T03:26:08.386Z,10.58
2023-01-01T03:28:38.360Z,10.60
2023-01-01T03:31:06.122Z,10.69
2023-01-01T03:33:39.818Z,10.58
2023-01-01T03:36:10.052Z,10.49
2023-01-01T03:38:40.732Z,10.62
2023-01-01T03:41:11.918Z,10.65
2023-01-01T03:43:45.476Z,10.55
2023-01-01T03:46:14.482Z,10.57
2023-01-01T03:48:42.634Z,10.52
2023-01-01T03:51:16.667Z,10.54
2023-01-01T03:53:44.321Z,10.51
2023-01-01T03:56:16.949Z,10.51
2023-01-01T03:58:53.403Z,10.48
2023-01-01T04:01:26.024Z,10.45
2023-01-01T04:03:54.679Z,10.48
2023-01-01T04:06:21.535Z,10.43
2023-01-01T04:08:51.586Z,10.45
2023-01-01T04:11:23.172Z,10.39
2023-01-01T04:13:49.715Z,10.38
2023-01-01T04:16:16.295Z,10.28
2023-01-01T04:18:43.109Z,10.40
2023-01-01T04:21:11.837Z,10.45
2023-01-01T04:23:38.545Z,10.44
2023-01-01T04:26:05.357Z,10.49
2023-01-01T04:28:31.917Z,10.40
2023-01-01T04:33:26.892Z,10.46
2023-01-01T04:35:53.460Z,10.46
2023-01-01T04:38:21.473Z,10.49
2023-01-01T04:40:57.934Z,10.38
2023-01-01T04:43:24.643Z,10.47
2023-01-01T04:45:55.893Z,10.57
2023-01-01T04:48:22.820Z,10.57
2023-01-01T04:50:55.048Z,10.57
2023-01-01T04:53:23.021Z,10.51
2023-01-01T04:55:49.733Z,10.49
2023-01-01T04:58:16.268Z,10.66
2023-01-01T05:00:42.841Z,10.63
2023-01-01T05:03:09.427Z,10.54
2023-01-01T05:05:36.066Z,10.52
2023-01-01T05:08:02.613Z,10.49
2023-01-01T05:10:30.795Z,10.43
2023-01-01T05:12:57.397Z,10.38
2023-01-01T05:15:23.951Z,10.41
2023-01-01T05:17:50.638Z,10.38
2023-01-01T05:20:17.287Z,10.36
2023-01-01T05:22:46.098Z,10.35
2023-01-01T05:25:12.780Z,10.37
2023-01-01T05:27:40.664Z,10.31
2023-01-01T05:30:08.395Z,10.25
2023-01-01T05:32:37.100Z,10.24
2023-01-01T05:35:04.126Z,10.32
2023-01-01T05:37:30.767Z,10.36
2023-01-01T05:39:57.328Z,10.26
2023-01-01T05:42:23.990Z,10.16
2023-01-01T05:44:51.829Z,10.37
2023-01-01T05:47:18.473Z,10.49
2023-01-01T05:49:45.482Z,10.48
2023-01-01T05:52:11.992Z,10.39
2023-01-01T05:54:38.492Z,10.48
2023-01-01T05:57:04.995Z,10.43
2023-01-01T05:59:31.503Z,10.49
2023-01-01T06:01:59.578Z,10.47
2023-01-01T06:04:26.422Z,10.48
2023-01-01T06:06:53.045Z,10.59
2023-01-01T06:09:19.792Z,10.62
2023-01-01T06:11:46.383Z,10.66
2023-01-01T06:14:12.897Z,10.56
2023-01-01T06:16:39.626Z,10.60
2023-01-01T06:19:07.499Z,10.52
2023-01-01T06:21:34.083Z,10.48
2023-01-01T06:24:00.918Z,10.44
2023-01-01T06:26:29.770Z,10.47
2023-01-01T06:28:56.782Z,10.48
2023-01-01T06:31:24.448Z,10.56
2023-01-01T06:33:51.180Z,10.50
2023-01-01T06:36:20.902Z,10.49
2023-01-01T06:38:49.004Z,10.53
2023-01-01T06:41:17.089Z,10.49
2023-01-01T06:43:44.525Z,10.56
2023-01-01T06:46:16.169Z,10.61
2023-01-01T06:48:43.365Z,10.55
2023-01-01T06:51:11.576Z,10.58
2023-01-01T06:53:39.846Z,10.66
2023-01-01T06:56:06.955Z,10.69
2023-01-01T06:58:34.331Z,10.70
2023-01-01T07:01:08.694Z,10.70
2023-01-01T07:03:35.742Z,10.72
2023-01-01T07:06:02.628Z,10.85
2023-01-01T07:08:29.158Z,10.86
2023-01-01T07:10:57.097Z,10.84
2023-01-01T07:13:24.022Z,10.83
2023-01-01T07:15:50.751Z,10.83
2023-01-01T07:18:17.454Z,10.77
2023-01-01T07:20:43.953Z,10.78
2023-01-01T07:23:11.603Z,10.92
2023-01-01T07:25:38.127Z,10.86
2023-01-01T07:28:05.988Z,10.87
2023-01-01T07:30:32.694Z,10.89
2023-01-01T07:32:59.428Z,10.91
2023-01-01T07:35:26.008Z,10.90
2023-01-01T07:37:52.512Z,10.92
2023-01-01T07:40:19.043Z,10.91
2023-01-01T07:42:45.761Z,10.96
2023-01-01T07:45:13.818Z,10.90
2023-01-01T07:47:40.397Z,10.95
2023-01-01T07:50:07.431Z,11.02
2023-01-01T07:52:33.945Z,10.96
2023-01-01T07:55:00.444Z,11.01
2023-01-01T07:57:27.130Z,11.05
2023-01-01T07:59:53.688Z,10.98
2023-01-01T08:02:21.692Z,10.93
2023-01-01T08:04:48.542Z,10.98
2023-01-01T08:07:15.061Z,10.94
2023-01-01T08:09:41.635Z,11.02
2023-01-01T08:12:08.202Z,11.05
2023-01-01T08:14:34.942Z,11.01
2023-01-01T08:17:01.499Z,10.97
2023-01-01T08:19:29.557Z,10.92
2023-01-01T08:21:56.230Z,11.01
2023-01-01T08:24:22.736Z,11.14
2023-01-01T08:26:49.726Z,11.10
2023-01-01T08:29:17.367Z,11.12
2023-01-01T08:31:43.976Z,11.15
2023-01-01T08:34:10.562Z,11.19
2023-01-01T08:36:38.802Z,11.35
2023-01-01T08:39:05.344Z,11.38
2023-01-01T08:41:31.914Z,11.48
2023-01-01T08:43:58.516Z,11.59
2023-01-01T08:46:25.319Z,11.67
2023-01-01T08:48:52.199Z,11.71
2023-01-01T08:51:18.796Z,11.80
2023-01-01T08:53:50.856Z,11.93
2023-01-01T08:56:18.720Z,11.97
2023-01-01T08:58:45.307Z,11.98
2023-01-01T09:01:11.967Z,11.98
2023-01-01T09:03:38.604Z,11.93
2023-01-01T09:06:05.651Z,11.89
2023-01-01T09:08:32.150Z,11.83
2023-01-01T09:11:01.665Z,11.77
2023-01-01T09:13:29.392Z,11.71
2023-01-01T09:15:56.503Z,11.72
2023-01-01T09:18:23.170Z,11.67
2023-01-01T09:20:49.740Z,11.62
2023-01-01T09:23:16.693Z,11.56
2023-01-01T09:25:43.224Z,11.55
2023-01-01T09:28:13.604Z,11.48
2023-01-01T09:30:40.494Z,11.46
2023-01-01T09:33:07.021Z,11.47
2023-01-01T09:35:33.551Z,11.44
2023-01-01T09:38:00.224Z,11.42
2023-01-01T09:40:35.143Z,11.45
2023-01-01T09:43:12.354Z,11.48
2023-01-01T09:45:51.203Z,11.45
2023-01-01T09:48:18.021Z,11.49
2023-01-01T09:50:46.172Z,11.55
2023-01-01T09:53:18.029Z,11.55
2023-01-01T09:55:48.924Z,11.59
2023-01-01T09:58:16.026Z,11.63
2023-01-01T10:00:48.139Z,11.59
2023-01-01T10:03:33.210Z,11.63
2023-01-01T10:06:08.989Z,11.61
2023-01-01T10:08:48.714Z,11.58
2023-01-01T10:11:23.031Z,11.62
2023-01-01T10:13:51.975Z,11.62
2023-01-01T10:16:30.181Z,11.69
2023-01-01T10:19:03.929Z,11.70
2023-01-01T10:21:33.879Z,11.75
2023-01-01T10:24:05.669Z,11.82
2023-01-01T10:26:34.573Z,11.86
2023-01-01T10:29:06.746Z,11.92
2023-01-01T10:31:36.782Z,11.96
2023-01-01T10:34:15.307Z,12.04
2023-01-01T10:36:42.951Z,12.05
2023-01-01T10:39:14.486Z,12.08
2023-01-01T10:41:41.010Z,12.07
2023-01-01T10:44:08.480Z,12.04
2023-01-01T10:46:41.199Z,12.00
2023-01-01T10:49:10.014Z,12.01
2023-01-01T10:51:41.851Z,11.94
2023-01-01T10:54:31.129Z,11.92
2023-01-01T10:56:58.856Z,11.88
2023-01-01T10:59:37.492Z,11.92
2023-01-01T11:02:22.427Z,11.93
2023-01-01T11:04:50.711Z,11.90
2023-01-01T11:07:27.703Z,11.89
2023-01-01T11:10:03.676Z,11.87
2023-01-01T11:15:23.765Z,11.87
2023-01-01T11:17:51.917Z,11.88
2023-01-01T11:20:20.440Z,11.89
2023-01-01T11:22:49.551Z,11.89
2023-01-01T11:25:19.518Z,11.88
2023-01-01T11:27:47.107Z,11.87
2023-01-01T11:30:26.424Z,11.86
2023-01-01T11:32:58.418Z,11.85
2023-01-01T11:35:27.918Z,11.87
2023-01-01T11:37:56.196Z,11.88
2023-01-01T11:40:25.375Z,11.85
2023-01-01T11:42:58.331Z,11.80
2023-01-01T11:45:31.704Z,11.87
2023-01-01T11:48:06.023Z,11.82
2023-01-01T11:50:34.467Z,11.81
2023-01-01T11:53:20.354Z,11.78
2023-01-01T11:55:50.044Z,11.79
2023-01-01T11:58:23.148Z,11.77
2023-01-01T12:00:52.862Z,11.78
2023-01-01T12:03:32.904Z,11.82
2023-01-01T12:06:06.317Z,11.83
2023-01-01T12:08:37.376Z,11.84
2023-01-01T12:11:15.059Z,11.91
2023-01-01T12:13:50.972Z,11.96
2023-01-01T12:16:22.839Z,12.01
2023-01-01T12:19:00.607Z,11.96
2023-01-01T12:21:28.447Z,11.96
2023-01-01T12:23:55.467Z,11.99
2023-01-01T12:26:25.547Z,11.99
2023-01-01T12:29:23.299Z,12.00
2023-01-01T12:32:00.334Z,11.97
2023-01-01T12:34:32.899Z,11.94
2023-01-01T12:37:09.662Z,11.92
2023-01-01T12:40:07.501Z,11.93
2023-01-01T12:42:51.589Z,11.90
2023-01-01T12:45:32.135Z,11.83
2023-01-01T12:48:07.055Z,11.77
2023-01-01T12:50:45.707Z,11.72
2023-01-01T12:53:26.003Z,11.70
2023-01-01T12:56:22.412Z,11.67
2023-01-01T12:58:55.717Z,11.63
2023-01-01T13:01:29.896Z,11.60
2023-01-01T13:04:02.267Z,11.60
2023-01-01T13:06:35.743Z,11.63
2023-01-01T13:09:07.129Z,11.60
2023-01-01T13:11:39.812Z,11.57
2023-01-01T13:14:09.725Z,11.54
2023-01-01T13:16:38.994Z,11.50
2023-01-01T13:19:05.909Z,11.50
2023-01-01T13:21:37.036Z,11.48
2023-01-01T13:24:05.051Z,11.46
2023-01-01T13:26:36.711Z,11.47
2023-01-01T13:29:32.258Z,11.49
2023-01-01T13:32:04.392Z,11.54
2023-01-01T13:34:37.480Z,11.60
2023-01-01T13:37:28.089Z,11.63
2023-01-01T13:39:56.824Z,11.70
2023-01-01T13:42:44.815Z,11.73
2023-01-01T13:45:24.839Z,11.73
2023-01-01T13:48:19.016Z,11.73
2023-01-01T13:50:53.259Z,11.69
2023-01-01T13:53:51.798Z,11.66
2023-01-01T13:56:35.361Z,11.66
2023-01-01T13:59:23.714Z,11.61
2023-01-01T14:01:57.839Z,11.67
2023-01-01T14:04:32.096Z,11.66
2023-01-01T14:07:18.654Z,11.63
2023-01-01T14:09:50.075Z,11.61
2023-01-01T14:12:18.386Z,11.64
2023-01-01T14:14:45.083Z,11.62
2023-01-01T14:17:14.770Z,11.62
2023-01-01T14:19:42.296Z,11.60
2023-01-01T14:22:10.203Z,11.57
2023-01-01T14:24:41.679Z,11.54
2023-01-01T14:27:15.683Z,11.54
2023-01-01T14:29:46.429Z,11.52
2023-01-01T14:32:15.553Z,11.53
2023-01-01T14:34:42.088Z,11.54
2023-01-01T14:37:22.011Z,11.52
2023-01-01T14:40:06.071Z,11.47
2023-01-01T14:42:35.795Z,11.45
2023-01-01T14:45:03.163Z,11.49
2023-01-01T14:47:32.308Z,11.49
2023-01-01T14:50:02.942Z,11.44
2023-01-01T14:52:30.099Z,11.44
2023-01-01T14:54:59.451Z,11.34
2023-01-01T14:57:29.217Z,11.32
2023-01-01T14:59:57.190Z,11.46
2023-01-01T15:02:25.988Z,11.42
2023-01-01T15:04:52.716Z,11.40
2023-01-01T15:07:22.166Z,11.39
2023-01-01T15:09:49.430Z,11.38
2023-01-01T15:12:16.469Z,11.30
2023-01-01T15:14:44.127Z,11.24
2023-01-01T15:17:14.363Z,11.29
2023-01-01T15:19:42.903Z,11.38
2023-01-01T15:22:11.760Z,11.40
2023-01-01T15:24:39.418Z,11.33
2023-01-01T15:27:07.316Z,11.30
2023-01-01T15:29:37.017Z,11.23
2023-01-01T15:32:05.986Z,11.23
2023-01-01T15:34:38.105Z,11.25
2023-01-01T15:37:10.291Z,11.23
2023-01-01T15:39:46.327Z,11.22
2023-01-01T15:42:22.696Z,11.33
2023-01-01T15:44:49.553Z,11.26
2023-01-01T15:47:17.103Z,11.22
2023-01-01T15:49:44.966Z,11.18
2023-01-01T15:52:17.790Z,11.15
2023-01-01T15:54:46.031Z,11.23
2023-01-01T15:57:18.104Z,11.25
2023-01-01T15:59:45.435Z,11.18
2023-01-01T16:02:17.030Z,11.13
2023-01-01T16:04:47.717Z,11.18
2023-01-01T16:07:19.730Z,11.36
2023-01-01T16:09:49.370Z,11.32
2023-01-01T16:12:19.358Z,11.29
2023-01-01T16:14:46.134Z,11.21
2023-01-01T16:17:15.755Z,11.22
2023-01-01T16:19:43.462Z,11.19
2023-01-01T16:22:14.863Z,11.19
2023-01-01T16:24:41.942Z,11.24
2023-01-01T16:27:08.591Z,11.19
2023-01-01T16:29:35.606Z,11.14
2023-01-01T16:32:02.263Z,11.05
2023-01-01T16:34:28.815Z,11.04
2023-01-01T16:36:55.409Z,10.98
2023-01-01T16:39:23.332Z,10.91
2023-01-01T16:41:49.968Z,10.86
2023-01-01T16:44:16.997Z,10.77
2023-01-01T16:46:44.045Z,10.68
2023-01-01T16:49:10.689Z,10.64
2023-01-01T16:51:42.138Z,10.65
2023-01-01T16:54:10.316Z,10.52
2023-01-01T16:56:38.335Z,10.50
2023-01-01T16:59:04.869Z,10.54
2023-01-01T17:01:31.853Z,10.43
2023-01-01T17:04:00.033Z,10.44
2023-01-01T17:06:26.577Z,10.42
2023-01-01T17:08:53.119Z,10.42
2023-01-01T17:11:19.664Z,10.35
2023-01-01T17:13:48.074Z,10.24
2023-01-01T17:16:21.495Z,10.25
2023-01-01T17:21:40.028Z,10.18
2023-01-01T17:24:07.333Z,10.11
2023-01-01T17:26:34.284Z,10.14
2023-01-01T17:29:02.465Z,10.15
2023-01-01T17:31:30.178Z,10.13
2023-01-01T17:33:57.103Z,10.16
2023-01-01T17:36:24.190Z,10.09
2023-01-01T17:38:50.955Z,10.04
2023-01-01T17:41:17.739Z,9.98
2023-01-01T17:43:46.030Z,9.89
2023-01-01T17:46:18.521Z,9.87
2023-01-01T17:48:45.946Z,9.85
2023-01-01T17:51:13.681Z,9.81
2023-01-01T17:53:40.256Z,9.77
2023-01-01T17:56:07.320Z,9.75
2023-01-01T17:58:35.665Z,9.72
2023-01-01T18:01:22.775Z,9.71
2023-01-01T18:03:51.382Z,9.65
2023-01-01T18:06:18.526Z,9.63
2023-01-01T18:08:45.123Z,9.63
2023-01-01T18:11:11.670Z,9.62
2023-01-01T18:13:38.695Z,9.61
2023-01-01T18:16:07.354Z,9.58
2023-01-01T18:18:37.703Z,9.54
2023-01-01T18:21:05.336Z,9.50
2023-01-01T18:23:32.632Z,9.44
2023-01-01T18:26:00.942Z,9.38
2023-01-01T18:28:27.544Z,9.33
2023-01-01T18:30:54.121Z,9.34
2023-01-01T18:33:21.813Z,9.27
2023-01-01T18:35:49.864Z,9.24
2023-01-01T18:38:19.084Z,9.27
2023-01-01T18:40:50.182Z,9.20
2023-01-01T18:43:23.620Z,9.16
2023-01-01T18:45:50.144Z,9.18
2023-01-01T18:48:21.566Z,9.16
2023-01-01T18:50:49.595Z,9.13
2023-01-01T18:53:17.775Z,9.09
2023-01-01T18:55:44.633Z,9.05
2023-01-01T18:58:17.016Z,9.04
2023-01-01T19:00:44.145Z,9.04
2023-01-01T19:03:14.720Z,9.01
2023-01-01T19:05:41.295Z,8.96
2023-01-01T19:08:14.686Z,8.91
2023-01-01T19:10:44.399Z,8.87
2023-01-01T19:13:19.545Z,8.82
2023-01-01T19:15:48.589Z,8.81
2023-01-01T19:18:17.632Z,8.80
2023-01-01T19:20:44.523Z,8.81
2023-01-01T19:23:18.363Z,8.81
2023-01-01T19:25:45.816Z,8.77
2023-01-01T19:28:32.486Z,8.74
2023-01-01T19:31:02.169Z,8.71
2023-01-01T19:33:29.107Z,8.70
2023-01-01T19:35:55.913Z,8.69
2023-01-01T19:38:24.062Z,8.69
2023-01-01T19:40:50.762Z,8.68
2023-01-01T19:43:17.505Z,8.67
2023-01-01T19:45:44.061Z,8.71
2023-01-01T19:48:10.592Z,8.68
2023-01-01T19:50:37.223Z,8.65
2023-01-01T19:53:03.767Z,8.63
2023-01-01T19:55:31.770Z,8.59
2023-01-01T19:57:58.332Z,8.58
2023-01-01T20:00:25.059Z,8.56
2023-01-01T20:02:51.977Z,8.56
2023-01-01T20:05:18.757Z,8.55
2023-01-01T20:07:45.325Z,8.53
2023-01-01T20:10:11.962Z,8.52
2023-01-01T20:12:39.944Z,8.50
2023-01-01T20:15:07.554Z,8.48
2023-01-01T20:17:34.111Z,8.46
2023-01-01T20:20:00.677Z,8.45
2023-01-01T20:22:27.223Z,8.43
2023-01-01T20:24:53.720Z,8.39
2023-01-01T20:27:20.402Z,8.38
2023-01-01T20:29:48.555Z,8.36
2023-01-01T20:32:15.119Z,8.37
2023-01-01T20:34:42.143Z,8.34
2023-01-01T20:37:08.677Z,8.34
2023-01-01T20:39:35.228Z,8.34
2023-01-01T20:42:01.794Z,8.31
2023-01-01T20:44:29.108Z,8.30
2023-01-01T20:46:57.112Z,8.28
2023-01-01T20:49:23.778Z,8.27
2023-01-01T20:51:52.680Z,8.27
2023-01-01T20:54:19.563Z,8.27
2023-01-01T20:56:46.357Z,8.25
2023-01-01T20:59:34.175Z,8.25
2023-01-01T21:02:01.014Z,8.29
2023-01-01T21:04:27.650Z,8.27
2023-01-01T21:06:54.202Z,8.29
2023-01-01T21:09:20.878Z,8.34
2023-01-01T21:11:47.420Z,8.40
2023-01-01T21:14:14.050Z,8.43
2023-01-01T21:16:43.450Z,8.43
2023-01-01T21:19:11.922Z,8.40
2023-01-01T21:21:43.559Z,8.37
2023-01-01T21:24:18.993Z,8.33
2023-01-01T21:26:45.852Z,8.31
2023-01-01T21:29:15.210Z,8.28
2023-01-01T21:31:41.824Z,8.30
2023-01-01T21:34:32.061Z,8.33
2023-01-01T21:37:01.799Z,8.35
2023-01-01T21:39:30.655Z,8.38
2023-01-01T21:42:14.608Z,8.43
2023-01-01T21:44:41.214Z,8.49
2023-01-01T21:47:19.809Z,8.49
2023-01-01T21:49:47.745Z,8.47
2023-01-01T21:52:18.503Z,8.47
2023-01-01T21:54:45.386Z,8.46
2023-01-01T21:57:14.699Z,8.49
2023-01-01T21:59:43.289Z,8.50
2023-01-01T22:02:33.856Z,8.55
2023-01-01T22:05:17.475Z,8.57
2023-01-01T22:07:57.436Z,8.72
2023-01-01T22:10:29.661Z,8.72
2023-01-01T22:12:58.735Z,8.74
2023-01-01T22:15:37.887Z,8.74
2023-01-01T22:18:17.819Z,8.76
2023-01-01T22:20:46.793Z,8.82
2023-01-01T22:23:23.636Z,8.83
2023-01-01T22:25:51.348Z,8.87
2023-01-01T22:28:23.023Z,8.86
2023-01-01T22:30:53.393Z,8.81
2023-01-01T22:33:26.000Z,8.82
2023-01-01T22:35:56.155Z,8.89
2023-01-01T22:38:29.324Z,9.06
2023-01-01T22:40:56.022Z,9.07
2023-01-01T22:43:27.485Z,9.09
2023-01-01T22:45:54.307Z,9.09
2023-01-01T22:48:24.170Z,9.24
2023-01-01T22:50:52.450Z,9.26
2023-01-01T22:53:20.333Z,10.24
2023-01-01T22:55:47.011Z,10.68
2023-01-01T22:58:13.694Z,10.60
2023-01-01T23:00:40.241Z,10.70
2023-01-01T23:03:06.870Z,10.70
2023-01-01T23:05:33.623Z,10.91
2023-01-01T23:08:00.308Z,10.94
2023-01-01T23:10:28.421Z,11.17
2023-01-01T23:12:54.989Z,11.40
2023-01-01T23:15:25.179Z,11.42
2023-01-01T23:17:51.790Z,11.83
2023-01-01T23:20:18.514Z,11.69
2023-01-01T23:22:49.461Z,11.83
2023-01-01T23:25:19.381Z,11.83
2023-01-01T23:27:49.480Z,11.86
2023-01-01T23:30:16.390Z,11.83
2023-01-01T23:32:43.520Z,12.01
2023-01-01T23:35:10.687Z,12.11
2023-01-01T23:37:38.559Z,12.10
2023-01-01T23:40:06.196Z,12.04
2023-01-01T23:42:32.810Z,12.30
2023-01-01T23:45:00.730Z,12.35
2023-01-01T23:47:27.446Z,12.39
2023-01-01T23:49:54.133Z,12.37
2023-01-01T23:52:20.884Z,12.27
2023-01-01T23:54:47.452Z,12.35
2023-01-01T23:57:14.161Z,12.23
2023-01-01T23:59:40.771Z,12.24
